sensor_id;sensor_type;location;lat;lon;timestamp;P1;durP1;ratioP1;P2;durP2;ratioP2
53652;SDS011;39553;52.954;5.932;2023-02-04T00:00:45;45.10;;;9.07;;
53652;SDS011;39553;52.954;5.932;2023-02-04T00:03:12;31.48;;;8.63;;
53652;SDS011;39553;52.954;5.932;2023-02-04T00:05:39;33.85;;;7.55;;
53652;SDS011;39553;52.954;5.932;2023-02-04T00:08:07;34.05;;;8.45;;
53652;SDS011;39553;52.954;5.932;2023-02-04T00:10:33;35.92;;;6.40;;
53652;SDS011;39553;52.954;5.932;2023-02-04T00:13:00;39.75;;;6.25;;
53652;SDS011;39553;52.954;5.932;2023-02-04T00:15:26;31.23;;;5.65;;
53652;SDS011;39553;52.954;5.932;2023-02-04T00:17:52;37.60;;;6.57;;
53652;SDS011;39553;52.954;5.932;2023-02-04T00:20:21;30.55;;;5.97;;
53652;SDS011;39553;52.954;5.932;2023-02-04T00:22:47;30.58;;;6.28;;
53652;SDS011;39553;52.954;5.932;2023-02-04T00:25:13;40.67;;;6.22;;
53652;SDS011;39553;52.954;5.932;2023-02-04T00:27:39;37.55;;;6.13;;
53652;SDS011;39553;52.954;5.932;2023-02-04T00:30:04;23.45;;;5.93;;
53652;SDS011;39553;52.954;5.932;2023-02-04T00:32:31;35.63;;;5.88;;
53652;SDS011;39553;52.954;5.932;2023-02-04T00:34:57;45.22;;;8.13;;
53652;SDS011;39553;52.954;5.932;2023-02-04T00:37:23;29.40;;;6.00;;
53652;SDS011;39553;52.954;5.932;2023-02-04T00:39:49;36.05;;;8.18;;
53652;SDS011;39553;52.954;5.932;2023-02-04T00:42:15;29.75;;;7.30;;
53652;SDS011;39553;52.954;5.932;2023-02-04T00:44:41;31.27;;;5.25;;
53652;SDS011;39553;52.954;5.932;2023-02-04T00:47:08;39.47;;;6.20;;
53652;SDS011;39553;52.954;5.932;2023-02-04T00:49:34;34.17;;;6.35;;
53652;SDS011;39553;52.954;5.932;2023-02-04T00:52:00;41.78;;;6.20;;
53652;SDS011;39553;52.954;5.932;2023-02-04T00:54:26;20.58;;;5.40;;
53652;SDS011;39553;52.954;5.932;2023-02-04T00:56:52;34.22;;;6.35;;
53652;SDS011;39553;52.954;5.932;2023-02-04T00:59:18;34.10;;;6.43;;
53652;SDS011;39553;52.954;5.932;2023-02-04T01:01:44;38.63;;;6.80;;
53652;SDS011;39553;52.954;5.932;2023-02-04T01:04:10;27.52;;;5.13;;
53652;SDS011;39553;52.954;5.932;2023-02-04T01:06:35;45.22;;;6.68;;
53652;SDS011;39553;52.954;5.932;2023-02-04T01:09:02;33.17;;;6.30;;
53652;SDS011;39553;52.954;5.932;2023-02-04T01:11:28;29.25;;;7.07;;
53652;SDS011;39553;52.954;5.932;2023-02-04T01:13:54;42.53;;;9.30;;
53652;SDS011;39553;52.954;5.932;2023-02-04T01:16:20;31.80;;;9.10;;
53652;SDS011;39553;52.954;5.932;2023-02-04T01:18:46;33.83;;;6.78;;
53652;SDS011;39553;52.954;5.932;2023-02-04T01:21:12;40.05;;;7.85;;
53652;SDS011;39553;52.954;5.932;2023-02-04T01:23:38;33.50;;;6.70;;
53652;SDS011;39553;52.954;5.932;2023-02-04T01:26:05;47.53;;;7.35;;
53652;SDS011;39553;52.954;5.932;2023-02-04T01:28:31;38.28;;;7.25;;
53652;SDS011;39553;52.954;5.932;2023-02-04T01:30:56;41.75;;;5.85;;
53652;SDS011;39553;52.954;5.932;2023-02-04T01:33:22;28.45;;;6.60;;
53652;SDS011;39553;52.954;5.932;2023-02-04T01:35:48;42.35;;;6.78;;
53652;SDS011;39553;52.954;5.932;2023-02-04T01:38:14;38.67;;;6.72;;
53652;SDS011;39553;52.954;5.932;2023-02-04T01:40:40;35.95;;;6.28;;
53652;SDS011;39553;52.954;5.932;2023-02-04T01:43:06;38.88;;;8.65;;
53652;SDS011;39553;52.954;5.932;2023-02-04T01:45:32;32.42;;;6.38;;
53652;SDS011;39553;52.954;5.932;2023-02-04T01:48:00;37.35;;;8.73;;
53652;SDS011;39553;52.954;5.932;2023-02-04T01:50:28;36.85;;;7.25;;
53652;SDS011;39553;52.954;5.932;2023-02-04T01:52:54;40.50;;;6.90;;
53652;SDS011;39553;52.954;5.932;2023-02-04T01:55:21;40.65;;;7.85;;
53652;SDS011;39553;52.954;5.932;2023-02-04T01:57:51;43.30;;;10.00;;
53652;SDS011;39553;52.954;5.932;2023-02-04T02:00:22;40.67;;;8.00;;
53652;SDS011;39553;52.954;5.932;2023-02-04T02:02:50;39.03;;;10.23;;
53652;SDS011;39553;52.954;5.932;2023-02-04T02:05:18;38.28;;;10.50;;
53652;SDS011;39553;52.954;5.932;2023-02-04T02:07:46;30.38;;;8.18;;
53652;SDS011;39553;52.954;5.932;2023-02-04T02:10:13;47.42;;;9.75;;
53652;SDS011;39553;52.954;5.932;2023-02-04T02:12:41;39.67;;;10.55;;
53652;SDS011;39553;52.954;5.932;2023-02-04T02:15:08;46.33;;;9.55;;
53652;SDS011;39553;52.954;5.932;2023-02-04T02:17:35;38.20;;;8.50;;
53652;SDS011;39553;52.954;5.932;2023-02-04T02:20:01;41.13;;;10.45;;
53652;SDS011;39553;52.954;5.932;2023-02-04T02:22:41;33.05;;;8.55;;
53652;SDS011;39553;52.954;5.932;2023-02-04T02:25:15;45.72;;;8.65;;
53652;SDS011;39553;52.954;5.932;2023-02-04T02:27:40;39.17;;;8.70;;
53652;SDS011;39553;52.954;5.932;2023-02-04T02:30:08;33.05;;;8.88;;
53652;SDS011;39553;52.954;5.932;2023-02-04T02:32:36;38.45;;;9.15;;
53652;SDS011;39553;52.954;5.932;2023-02-04T02:35:03;32.88;;;6.82;;
53652;SDS011;39553;52.954;5.932;2023-02-04T02:37:29;39.72;;;8.38;;
53652;SDS011;39553;52.954;5.932;2023-02-04T02:39:55;39.40;;;9.15;;
53652;SDS011;39553;52.954;5.932;2023-02-04T02:42:21;36.00;;;9.38;;
53652;SDS011;39553;52.954;5.932;2023-02-04T02:44:47;34.22;;;8.57;;
53652;SDS011;39553;52.954;5.932;2023-02-04T02:47:15;35.33;;;9.48;;
53652;SDS011;39553;52.954;5.932;2023-02-04T02:49:44;34.55;;;6.70;;
53652;SDS011;39553;52.954;5.932;2023-02-04T02:52:15;29.85;;;7.40;;
53652;SDS011;39553;52.954;5.932;2023-02-04T02:54:41;35.38;;;7.30;;
53652;SDS011;39553;52.954;5.932;2023-02-04T02:57:14;35.28;;;7.88;;
53652;SDS011;39553;52.954;5.932;2023-02-04T02:59:41;24.77;;;6.70;;
53652;SDS011;39553;52.954;5.932;2023-02-04T03:02:08;35.63;;;6.00;;
53652;SDS011;39553;52.954;5.932;2023-02-04T03:04:40;34.42;;;6.68;;
53652;SDS011;39553;52.954;5.932;2023-02-04T03:07:08;36.50;;;6.07;;
53652;SDS011;39553;52.954;5.932;2023-02-04T03:09:35;31.33;;;5.22;;
53652;SDS011;39553;52.954;5.932;2023-02-04T03:12:01;37.70;;;6.05;;
53652;SDS011;39553;52.954;5.932;2023-02-04T03:14:29;41.80;;;7.28;;
53652;SDS011;39553;52.954;5.932;2023-02-04T03:16:55;35.88;;;6.00;;
53652;SDS011;39553;52.954;5.932;2023-02-04T03:19:24;29.05;;;4.93;;
53652;SDS011;39553;52.954;5.932;2023-02-04T03:21:51;42.78;;;6.80;;
53652;SDS011;39553;52.954;5.932;2023-02-04T03:24:19;33.83;;;7.90;;
53652;SDS011;39553;52.954;5.932;2023-02-04T03:26:45;31.13;;;6.35;;
53652;SDS011;39553;52.954;5.932;2023-02-04T03:29:11;31.17;;;5.35;;
53652;SDS011;39553;52.954;5.932;2023-02-04T03:31:37;41.97;;;6.43;;
53652;SDS011;39553;52.954;5.932;2023-02-04T03:34:03;32.47;;;7.72;;
53652;SDS011;39553;52.954;5.932;2023-02-04T03:36:29;28.88;;;7.40;;
53652;SDS011;39553;52.954;5.932;2023-02-04T03:38:55;30.98;;;6.90;;
53652;SDS011;39553;52.954;5.932;2023-02-04T03:41:20;34.50;;;7.97;;
53652;SDS011;39553;52.954;5.932;2023-02-04T03:43:47;36.00;;;7.18;;
53652;SDS011;39553;52.954;5.932;2023-02-04T03:46:12;39.55;;;10.15;;
53652;SDS011;39553;52.954;5.932;2023-02-04T03:48:38;44.95;;;10.80;;
53652;SDS011;39553;52.954;5.932;2023-02-04T03:51:04;41.05;;;8.18;;
53652;SDS011;39553;52.954;5.932;2023-02-04T03:53:30;36.67;;;7.88;;
53652;SDS011;39553;52.954;5.932;2023-02-04T03:55:56;37.65;;;9.55;;
53652;SDS011;39553;52.954;5.932;2023-02-04T03:58:21;48.75;;;10.50;;
53652;SDS011;39553;52.954;5.932;2023-02-04T04:00:47;43.63;;;9.32;;
53652;SDS011;39553;52.954;5.932;2023-02-04T04:03:13;36.47;;;8.10;;
53652;SDS011;39553;52.954;5.932;2023-02-04T04:05:39;38.00;;;8.70;;
53652;SDS011;39553;52.954;5.932;2023-02-04T04:08:05;35.47;;;9.30;;
53652;SDS011;39553;52.954;5.932;2023-02-04T04:10:32;44.55;;;9.98;;
53652;SDS011;39553;52.954;5.932;2023-02-04T04:12:58;50.95;;;9.82;;
53652;SDS011;39553;52.954;5.932;2023-02-04T04:15:23;50.05;;;9.68;;
53652;SDS011;39553;52.954;5.932;2023-02-04T04:17:49;41.10;;;8.68;;
53652;SDS011;39553;52.954;5.932;2023-02-04T04:20:15;33.08;;;7.63;;
53652;SDS011;39553;52.954;5.932;2023-02-04T04:22:41;31.65;;;9.90;;
53652;SDS011;39553;52.954;5.932;2023-02-04T04:25:07;35.53;;;9.25;;
53652;SDS011;39553;52.954;5.932;2023-02-04T04:27:33;40.28;;;9.68;;
53652;SDS011;39553;52.954;5.932;2023-02-04T04:29:59;53.40;;;11.95;;
53652;SDS011;39553;52.954;5.932;2023-02-04T04:32:25;44.88;;;9.48;;
53652;SDS011;39553;52.954;5.932;2023-02-04T04:34:50;34.30;;;8.65;;
53652;SDS011;39553;52.954;5.932;2023-02-04T04:37:16;23.92;;;6.63;;
53652;SDS011;39553;52.954;5.932;2023-02-04T04:39:45;40.08;;;6.80;;
53652;SDS011;39553;52.954;5.932;2023-02-04T04:42:11;35.15;;;7.93;;
53652;SDS011;39553;52.954;5.932;2023-02-04T04:44:37;34.65;;;7.05;;
53652;SDS011;39553;52.954;5.932;2023-02-04T04:47:02;33.58;;;7.65;;
53652;SDS011;39553;52.954;5.932;2023-02-04T04:49:28;41.67;;;6.88;;
53652;SDS011;39553;52.954;5.932;2023-02-04T04:51:54;33.55;;;5.97;;
53652;SDS011;39553;52.954;5.932;2023-02-04T04:54:19;39.38;;;6.07;;
53652;SDS011;39553;52.954;5.932;2023-02-04T04:56:45;40.03;;;6.93;;
53652;SDS011;39553;52.954;5.932;2023-02-04T04:59:14;30.83;;;6.10;;
53652;SDS011;39553;52.954;5.932;2023-02-04T05:01:40;50.92;;;7.80;;
53652;SDS011;39553;52.954;5.932;2023-02-04T05:04:05;36.20;;;7.60;;
53652;SDS011;39553;52.954;5.932;2023-02-04T05:06:31;41.58;;;6.38;;
53652;SDS011;39553;52.954;5.932;2023-02-04T05:08:57;35.83;;;7.07;;
53652;SDS011;39553;52.954;5.932;2023-02-04T05:11:23;39.95;;;6.72;;
53652;SDS011;39553;52.954;5.932;2023-02-04T05:13:48;34.42;;;7.50;;
53652;SDS011;39553;52.954;5.932;2023-02-04T05:16:14;46.65;;;7.22;;
53652;SDS011;39553;52.954;5.932;2023-02-04T05:18:41;39.72;;;7.57;;
53652;SDS011;39553;52.954;5.932;2023-02-04T05:21:07;35.10;;;6.00;;
53652;SDS011;39553;52.954;5.932;2023-02-04T05:23:33;32.72;;;6.57;;
53652;SDS011;39553;52.954;5.932;2023-02-04T05:25:58;36.92;;;7.75;;
53652;SDS011;39553;52.954;5.932;2023-02-04T05:28:24;39.70;;;6.35;;
53652;SDS011;39553;52.954;5.932;2023-02-04T05:30:50;36.08;;;6.00;;
53652;SDS011;39553;52.954;5.932;2023-02-04T05:33:16;52.97;;;7.35;;
53652;SDS011;39553;52.954;5.932;2023-02-04T05:35:41;42.28;;;6.90;;
53652;SDS011;39553;52.954;5.932;2023-02-04T05:38:07;41.28;;;7.03;;
53652;SDS011;39553;52.954;5.932;2023-02-04T05:40:33;53.40;;;8.88;;
53652;SDS011;39553;52.954;5.932;2023-02-04T05:42:59;38.90;;;6.43;;
53652;SDS011;39553;52.954;5.932;2023-02-04T05:45:25;42.08;;;8.73;;
53652;SDS011;39553;52.954;5.932;2023-02-04T05:47:51;42.75;;;8.07;;
53652;SDS011;39553;52.954;5.932;2023-02-04T05:50:17;50.75;;;6.85;;
53652;SDS011;39553;52.954;5.932;2023-02-04T05:52:43;39.92;;;7.20;;
53652;SDS011;39553;52.954;5.932;2023-02-04T05:55:12;40.05;;;7.15;;
53652;SDS011;39553;52.954;5.932;2023-02-04T05:57:38;28.77;;;6.90;;
53652;SDS011;39553;52.954;5.932;2023-02-04T06:00:04;47.35;;;7.90;;
53652;SDS011;39553;52.954;5.932;2023-02-04T06:02:30;45.55;;;6.93;;
53652;SDS011;39553;52.954;5.932;2023-02-04T06:04:56;37.33;;;7.18;;
53652;SDS011;39553;52.954;5.932;2023-02-04T06:07:22;27.60;;;6.65;;
53652;SDS011;39553;52.954;5.932;2023-02-04T06:09:47;44.95;;;6.90;;
53652;SDS011;39553;52.954;5.932;2023-02-04T06:12:15;42.35;;;7.30;;
53652;SDS011;39553;52.954;5.932;2023-02-04T06:14:40;36.13;;;7.18;;
53652;SDS011;39553;52.954;5.932;2023-02-04T06:17:06;37.67;;;6.72;;
53652;SDS011;39553;52.954;5.932;2023-02-04T06:19:32;44.13;;;8.07;;
53652;SDS011;39553;52.954;5.932;2023-02-04T06:21:57;34.28;;;7.68;;
53652;SDS011;39553;52.954;5.932;2023-02-04T06:24:23;41.28;;;8.02;;
53652;SDS011;39553;52.954;5.932;2023-02-04T06:26:49;51.80;;;7.63;;
53652;SDS011;39553;52.954;5.932;2023-02-04T06:29:15;39.60;;;6.60;;
53652;SDS011;39553;52.954;5.932;2023-02-04T06:31:40;43.40;;;7.97;;
53652;SDS011;39553;52.954;5.932;2023-02-04T06:34:07;34.10;;;7.38;;
53652;SDS011;39553;52.954;5.932;2023-02-04T06:36:36;41.40;;;6.65;;
53652;SDS011;39553;52.954;5.932;2023-02-04T06:39:02;44.88;;;7.40;;
53652;SDS011;39553;52.954;5.932;2023-02-04T06:41:28;29.52;;;6.43;;
53652;SDS011;39553;52.954;5.932;2023-02-04T06:43:54;46.13;;;7.88;;
53652;SDS011;39553;52.954;5.932;2023-02-04T06:46:20;45.00;;;8.27;;
53652;SDS011;39553;52.954;5.932;2023-02-04T06:48:46;40.15;;;7.60;;
53652;SDS011;39553;52.954;5.932;2023-02-04T06:51:11;50.15;;;8.27;;
53652;SDS011;39553;52.954;5.932;2023-02-04T06:53:37;41.42;;;6.85;;
53652;SDS011;39553;52.954;5.932;2023-02-04T06:56:04;40.35;;;7.07;;
53652;SDS011;39553;52.954;5.932;2023-02-04T06:58:30;32.35;;;7.22;;
53652;SDS011;39553;52.954;5.932;2023-02-04T07:00:56;39.78;;;7.10;;
53652;SDS011;39553;52.954;5.932;2023-02-04T07:03:25;32.50;;;6.85;;
53652;SDS011;39553;52.954;5.932;2023-02-04T07:06:20;46.67;;;8.32;;
53652;SDS011;39553;52.954;5.932;2023-02-04T07:08:45;32.47;;;7.00;;
53652;SDS011;39553;52.954;5.932;2023-02-04T07:11:19;34.83;;;7.35;;
53652;SDS011;39553;52.954;5.932;2023-02-04T07:13:57;60.92;;;8.63;;
53652;SDS011;39553;52.954;5.932;2023-02-04T07:16:23;31.77;;;7.78;;
53652;SDS011;39553;52.954;5.932;2023-02-04T07:18:49;48.28;;;8.15;;
53652;SDS011;39553;52.954;5.932;2023-02-04T07:21:15;33.38;;;6.95;;
53652;SDS011;39553;52.954;5.932;2023-02-04T07:23:40;53.42;;;8.15;;
53652;SDS011;39553;52.954;5.932;2023-02-04T07:26:06;26.90;;;6.25;;
53652;SDS011;39553;52.954;5.932;2023-02-04T07:28:32;51.15;;;8.50;;
53652;SDS011;39553;52.954;5.932;2023-02-04T07:31:00;50.17;;;7.60;;
53652;SDS011;39553;52.954;5.932;2023-02-04T07:33:26;48.80;;;8.00;;
53652;SDS011;39553;52.954;5.932;2023-02-04T07:35:52;47.78;;;7.53;;
53652;SDS011;39553;52.954;5.932;2023-02-04T07:38:18;42.40;;;7.85;;
53652;SDS011;39553;52.954;5.932;2023-02-04T07:40:43;46.50;;;7.53;;
53652;SDS011;39553;52.954;5.932;2023-02-04T07:43:10;39.50;;;9.45;;
53652;SDS011;39553;52.954;5.932;2023-02-04T07:45:36;32.47;;;6.65;;
53652;SDS011;39553;52.954;5.932;2023-02-04T07:48:01;32.78;;;6.88;;
53652;SDS011;39553;52.954;5.932;2023-02-04T07:50:27;41.85;;;7.50;;
53652;SDS011;39553;52.954;5.932;2023-02-04T07:52:53;38.78;;;7.88;;
53652;SDS011;39553;52.954;5.932;2023-02-04T07:55:19;30.70;;;6.90;;
53652;SDS011;39553;52.954;5.932;2023-02-04T07:57:44;37.75;;;7.80;;
53652;SDS011;39553;52.954;5.932;2023-02-04T08:00:11;31.60;;;7.90;;
53652;SDS011;39553;52.954;5.932;2023-02-04T08:02:38;40.35;;;7.97;;
53652;SDS011;39553;52.954;5.932;2023-02-04T08:05:06;35.20;;;7.82;;
53652;SDS011;39553;52.954;5.932;2023-02-04T08:07:32;37.70;;;7.72;;
53652;SDS011;39553;52.954;5.932;2023-02-04T08:09:58;44.83;;;8.23;;
53652;SDS011;39553;52.954;5.932;2023-02-04T08:12:24;31.67;;;8.02;;
53652;SDS011;39553;52.954;5.932;2023-02-04T08:14:49;48.25;;;8.45;;
53652;SDS011;39553;52.954;5.932;2023-02-04T08:17:16;42.17;;;8.85;;
53652;SDS011;39553;52.954;5.932;2023-02-04T08:19:42;47.92;;;9.35;;
53652;SDS011;39553;52.954;5.932;2023-02-04T08:22:08;42.17;;;8.32;;
53652;SDS011;39553;52.954;5.932;2023-02-04T08:24:34;43.50;;;10.38;;
53652;SDS011;39553;52.954;5.932;2023-02-04T08:27:00;35.80;;;8.80;;
53652;SDS011;39553;52.954;5.932;2023-02-04T08:29:26;44.13;;;8.63;;
53652;SDS011;39553;52.954;5.932;2023-02-04T08:31:55;46.28;;;7.90;;
53652;SDS011;39553;52.954;5.932;2023-02-04T08:34:20;43.83;;;9.55;;
53652;SDS011;39553;52.954;5.932;2023-02-04T08:36:46;50.05;;;8.93;;
53652;SDS011;39553;52.954;5.932;2023-02-04T08:39:12;42.08;;;8.23;;
53652;SDS011;39553;52.954;5.932;2023-02-04T08:41:38;37.05;;;9.38;;
53652;SDS011;39553;52.954;5.932;2023-02-04T08:44:03;39.72;;;7.70;;
53652;SDS011;39553;52.954;5.932;2023-02-04T08:46:29;43.97;;;8.27;;
53652;SDS011;39553;52.954;5.932;2023-02-04T08:48:55;43.10;;;9.32;;
53652;SDS011;39553;52.954;5.932;2023-02-04T08:51:21;37.42;;;7.90;;
53652;SDS011;39553;52.954;5.932;2023-02-04T08:53:47;24.40;;;7.72;;
53652;SDS011;39553;52.954;5.932;2023-02-04T08:56:13;30.35;;;6.72;;
53652;SDS011;39553;52.954;5.932;2023-02-04T08:58:42;36.85;;;6.63;;
53652;SDS011;39553;52.954;5.932;2023-02-04T09:01:09;32.22;;;7.80;;
53652;SDS011;39553;52.954;5.932;2023-02-04T09:03:37;33.15;;;6.70;;
53652;SDS011;39553;52.954;5.932;2023-02-04T09:06:04;32.72;;;6.95;;
53652;SDS011;39553;52.954;5.932;2023-02-04T09:08:30;22.48;;;6.05;;
53652;SDS011;39553;52.954;5.932;2023-02-04T09:10:56;28.52;;;5.95;;
53652;SDS011;39553;52.954;5.932;2023-02-04T09:13:21;25.60;;;6.30;;
53652;SDS011;39553;52.954;5.932;2023-02-04T09:15:47;34.38;;;6.10;;
53652;SDS011;39553;52.954;5.932;2023-02-04T09:18:13;24.83;;;5.85;;
53652;SDS011;39553;52.954;5.932;2023-02-04T09:20:42;25.95;;;5.40;;
53652;SDS011;39553;52.954;5.932;2023-02-04T09:23:09;27.92;;;6.15;;
53652;SDS011;39553;52.954;5.932;2023-02-04T09:25:39;19.50;;;5.70;;
53652;SDS011;39553;52.954;5.932;2023-02-04T09:28:07;41.60;;;5.20;;
53652;SDS011;39553;52.954;5.932;2023-02-04T09:30:40;19.98;;;5.65;;
53652;SDS011;39553;52.954;5.932;2023-02-04T09:33:16;25.15;;;4.32;;
53652;SDS011;39553;52.954;5.932;2023-02-04T09:35:42;31.45;;;5.82;;
53652;SDS011;39553;52.954;5.932;2023-02-04T09:38:08;20.23;;;5.07;;
53652;SDS011;39553;52.954;5.932;2023-02-04T09:40:34;25.50;;;4.47;;
53652;SDS011;39553;52.954;5.932;2023-02-04T09:43:04;35.88;;;5.68;;
53652;SDS011;39553;52.954;5.932;2023-02-04T09:45:34;22.25;;;5.18;;
53652;SDS011;39553;52.954;5.932;2023-02-04T09:48:01;18.70;;;4.70;;
53652;SDS011;39553;52.954;5.932;2023-02-04T09:50:29;16.88;;;3.90;;
53652;SDS011;39553;52.954;5.932;2023-02-04T09:52:56;12.93;;;4.03;;
53652;SDS011;39553;52.954;5.932;2023-02-04T09:55:29;20.13;;;4.50;;
53652;SDS011;39553;52.954;5.932;2023-02-04T09:57:57;15.93;;;4.25;;
53652;SDS011;39553;52.954;5.932;2023-02-04T10:00:25;23.73;;;5.47;;
53652;SDS011;39553;52.954;5.932;2023-02-04T10:02:53;23.05;;;5.25;;
53652;SDS011;39553;52.954;5.932;2023-02-04T10:05:23;19.67;;;3.78;;
53652;SDS011;39553;52.954;5.932;2023-02-04T10:10:22;19.70;;;3.95;;
53652;SDS011;39553;52.954;5.932;2023-02-04T10:12:51;15.95;;;3.88;;
53652;SDS011;39553;52.954;5.932;2023-02-04T10:15:20;24.15;;;6.10;;
53652;SDS011;39553;52.954;5.932;2023-02-04T10:17:47;14.63;;;3.60;;
53652;SDS011;39553;52.954;5.932;2023-02-04T10:20:17;21.30;;;4.10;;
53652;SDS011;39553;52.954;5.932;2023-02-04T10:22:45;20.63;;;3.78;;
53652;SDS011;39553;52.954;5.932;2023-02-04T10:25:15;16.33;;;3.90;;
53652;SDS011;39553;52.954;5.932;2023-02-04T10:27:46;20.10;;;4.78;;
53652;SDS011;39553;52.954;5.932;2023-02-04T10:30:29;19.17;;;4.35;;
53652;SDS011;39553;52.954;5.932;2023-02-04T10:33:11;17.50;;;4.90;;
53652;SDS011;39553;52.954;5.932;2023-02-04T10:35:47;21.58;;;4.10;;
53652;SDS011;39553;52.954;5.932;2023-02-04T10:38:14;20.67;;;5.10;;
53652;SDS011;39553;52.954;5.932;2023-02-04T10:40:40;16.83;;;4.70;;
53652;SDS011;39553;52.954;5.932;2023-02-04T10:43:07;16.63;;;4.50;;
53652;SDS011;39553;52.954;5.932;2023-02-04T10:45:47;16.42;;;4.60;;
53652;SDS011;39553;52.954;5.932;2023-02-04T10:48:20;18.60;;;5.25;;
53652;SDS011;39553;52.954;5.932;2023-02-04T10:50:47;15.32;;;4.93;;
53652;SDS011;39553;52.954;5.932;2023-02-04T10:53:20;14.27;;;4.03;;
53652;SDS011;39553;52.954;5.932;2023-02-04T10:56:16;15.13;;;3.83;;
53652;SDS011;39553;52.954;5.932;2023-02-04T10:58:44;16.98;;;4.45;;
53652;SDS011;39553;52.954;5.932;2023-02-04T11:01:12;17.70;;;4.75;;
53652;SDS011;39553;52.954;5.932;2023-02-04T11:03:39;17.92;;;5.00;;
53652;SDS011;39553;52.954;5.932;2023-02-04T11:06:22;22.55;;;4.28;;
53652;SDS011;39553;52.954;5.932;2023-02-04T11:08:48;14.82;;;3.83;;
53652;SDS011;39553;52.954;5.932;2023-02-04T11:13:45;15.18;;;4.13;;
53652;SDS011;39553;52.954;5.932;2023-02-04T11:16:27;13.60;;;3.80;;
53652;SDS011;39553;52.954;5.932;2023-02-04T11:18:58;22.45;;;4.72;;
53652;SDS011;39553;52.954;5.932;2023-02-04T11:21:27;18.42;;;4.82;;
53652;SDS011;39553;52.954;5.932;2023-02-04T11:24:03;23.80;;;4.35;;
53652;SDS011;39553;52.954;5.932;2023-02-04T11:26:51;18.83;;;3.80;;
53652;SDS011;39553;52.954;5.932;2023-02-04T11:29:29;12.23;;;3.45;;
53652;SDS011;39553;52.954;5.932;2023-02-04T11:35:06;16.77;;;4.45;;
53652;SDS011;39553;52.954;5.932;2023-02-04T11:37:34;13.68;;;3.53;;
53652;SDS011;39553;52.954;5.932;2023-02-04T11:40:07;18.15;;;4.38;;
53652;SDS011;39553;52.954;5.932;2023-02-04T11:42:47;17.48;;;3.67;;
53652;SDS011;39553;52.954;5.932;2023-02-04T11:45:23;14.52;;;3.20;;
53652;SDS011;39553;52.954;5.932;2023-02-04T11:48:01;13.82;;;3.22;;
53652;SDS011;39553;52.954;5.932;2023-02-04T11:50:35;12.98;;;2.88;;
53652;SDS011;39553;52.954;5.932;2023-02-04T11:53:07;16.40;;;4.82;;
53652;SDS011;39553;52.954;5.932;2023-02-04T11:55:36;16.58;;;3.70;;
53652;SDS011;39553;52.954;5.932;2023-02-04T11:58:11;18.10;;;4.03;;
53652;SDS011;39553;52.954;5.932;2023-02-04T12:00:40;16.73;;;4.10;;
53652;SDS011;39553;52.954;5.932;2023-02-04T12:03:18;17.15;;;4.55;;
53652;SDS011;39553;52.954;5.932;2023-02-04T12:05:49;17.60;;;4.18;;
53652;SDS011;39553;52.954;5.932;2023-02-04T12:10:47;17.50;;;3.97;;
53652;SDS011;39553;52.954;5.932;2023-02-04T12:13:21;21.35;;;4.28;;
53652;SDS011;39553;52.954;5.932;2023-02-04T12:16:04;11.55;;;3.55;;
53652;SDS011;39553;52.954;5.932;2023-02-04T12:18:32;17.38;;;4.35;;
53652;SDS011;39553;52.954;5.932;2023-02-04T12:20:59;18.40;;;3.47;;
53652;SDS011;39553;52.954;5.932;2023-02-04T12:23:27;16.98;;;3.58;;
53652;SDS011;39553;52.954;5.932;2023-02-04T12:25:54;16.75;;;3.88;;
53652;SDS011;39553;52.954;5.932;2023-02-04T12:28:20;14.68;;;3.50;;
53652;SDS011;39553;52.954;5.932;2023-02-04T12:30:46;14.10;;;4.35;;
53652;SDS011;39553;52.954;5.932;2023-02-04T12:33:12;15.00;;;3.80;;
53652;SDS011;39553;52.954;5.932;2023-02-04T12:35:38;14.25;;;3.95;;
53652;SDS011;39553;52.954;5.932;2023-02-04T12:38:04;12.50;;;3.15;;
53652;SDS011;39553;52.954;5.932;2023-02-04T12:40:30;18.75;;;3.63;;
53652;SDS011;39553;52.954;5.932;2023-02-04T12:42:56;19.00;;;3.45;;
53652;SDS011;39553;52.954;5.932;2023-02-04T12:45:22;12.77;;;3.10;;
53652;SDS011;39553;52.954;5.932;2023-02-04T12:47:47;18.80;;;4.68;;
53652;SDS011;39553;52.954;5.932;2023-02-04T12:50:14;16.58;;;3.35;;
53652;SDS011;39553;52.954;5.932;2023-02-04T12:52:48;13.45;;;3.53;;
53652;SDS011;39553;52.954;5.932;2023-02-04T12:55:18;15.13;;;3.58;;
53652;SDS011;39553;52.954;5.932;2023-02-04T12:57:45;12.00;;;4.30;;
53652;SDS011;39553;52.954;5.932;2023-02-04T13:00:12;15.05;;;3.58;;
53652;SDS011;39553;52.954;5.932;2023-02-04T13:02:39;15.82;;;3.63;;
53652;SDS011;39553;52.954;5.932;2023-02-04T13:05:05;16.95;;;4.22;;
53652;SDS011;39553;52.954;5.932;2023-02-04T13:07:31;18.10;;;4.05;;
53652;SDS011;39553;52.954;5.932;2023-02-04T13:09:57;12.70;;;3.05;;
53652;SDS011;39553;52.954;5.932;2023-02-04T13:12:23;16.08;;;3.90;;
53652;SDS011;39553;52.954;5.932;2023-02-04T13:14:49;20.00;;;4.05;;
53652;SDS011;39553;52.954;5.932;2023-02-04T13:17:15;15.05;;;3.78;;
53652;SDS011;39553;52.954;5.932;2023-02-04T13:19:41;20.05;;;5.18;;
53652;SDS011;39553;52.954;5.932;2023-02-04T13:22:07;16.23;;;3.67;;
53652;SDS011;39553;52.954;5.932;2023-02-04T13:24:33;23.17;;;4.25;;
53652;SDS011;39553;52.954;5.932;2023-02-04T13:26:59;21.25;;;3.72;;
53652;SDS011;39553;52.954;5.932;2023-02-04T13:29:25;15.55;;;3.30;;
53652;SDS011;39553;52.954;5.932;2023-02-04T13:31:51;9.50;;;3.55;;
53652;SDS011;39553;52.954;5.932;2023-02-04T13:34:17;24.25;;;3.78;;
53652;SDS011;39553;52.954;5.932;2023-02-04T13:36:43;26.98;;;4.30;;
53652;SDS011;39553;52.954;5.932;2023-02-04T13:39:09;22.85;;;4.30;;
53652;SDS011;39553;52.954;5.932;2023-02-04T13:41:35;17.38;;;4.15;;
53652;SDS011;39553;52.954;5.932;2023-02-04T13:44:01;16.45;;;3.72;;
53652;SDS011;39553;52.954;5.932;2023-02-04T13:46:28;16.25;;;4.43;;
53652;SDS011;39553;52.954;5.932;2023-02-04T13:48:54;15.10;;;3.55;;
53652;SDS011;39553;52.954;5.932;2023-02-04T13:51:23;19.02;;;4.20;;
53652;SDS011;39553;52.954;5.932;2023-02-04T13:53:49;15.95;;;4.68;;
53652;SDS011;39553;52.954;5.932;2023-02-04T13:56:15;16.30;;;4.43;;
53652;SDS011;39553;52.954;5.932;2023-02-04T13:58:41;21.48;;;4.43;;
53652;SDS011;39553;52.954;5.932;2023-02-04T14:01:10;20.75;;;4.05;;
53652;SDS011;39553;52.954;5.932;2023-02-04T14:03:36;25.58;;;3.97;;
53652;SDS011;39553;52.954;5.932;2023-02-04T14:06:02;23.05;;;4.72;;
53652;SDS011;39553;52.954;5.932;2023-02-04T14:08:28;17.80;;;3.88;;
53652;SDS011;39553;52.954;5.932;2023-02-04T14:10:54;22.05;;;4.70;;
53652;SDS011;39553;52.954;5.932;2023-02-04T14:13:19;20.05;;;4.00;;
53652;SDS011;39553;52.954;5.932;2023-02-04T14:15:45;20.90;;;3.92;;
53652;SDS011;39553;52.954;5.932;2023-02-04T14:18:11;23.15;;;4.72;;
53652;SDS011;39553;52.954;5.932;2023-02-04T14:20:37;19.05;;;4.00;;
53652;SDS011;39553;52.954;5.932;2023-02-04T14:23:03;27.25;;;4.85;;
53652;SDS011;39553;52.954;5.932;2023-02-04T14:25:30;22.42;;;4.65;;
53652;SDS011;39553;52.954;5.932;2023-02-04T14:27:56;21.98;;;4.18;;
53652;SDS011;39553;52.954;5.932;2023-02-04T14:30:23;22.00;;;4.45;;
53652;SDS011;39553;52.954;5.932;2023-02-04T14:32:51;20.58;;;4.50;;
53652;SDS011;39553;52.954;5.932;2023-02-04T14:35:17;23.08;;;5.40;;
53652;SDS011;39553;52.954;5.932;2023-02-04T14:37:43;15.63;;;3.67;;
53652;SDS011;39553;52.954;5.932;2023-02-04T14:40:10;11.38;;;4.25;;
53652;SDS011;39553;52.954;5.932;2023-02-04T14:42:36;23.55;;;5.32;;
53652;SDS011;39553;52.954;5.932;2023-02-04T14:45:06;24.95;;;5.80;;